LYBE/BEG METAR and TAF weather

Enter ICAO airport designator
Station Type Date Time Source
LYBE METAR 2019/02/18 23:00 UTC NOAA

LYBE 182300Z 07003KT 5000 BR NSC 03/01 Q1022 BECMG 3000


Station Type Date Time Source
LYBE Decoded METAR 2019/02/18 23:00 UTC NOAA

Beograd / Surcin, Serbia and Montenegro (LYBE) 44-49N 020-17E 99M
Feb 18, 2019 - 06:00 PM EST / 2019.02.18 2300 UTC
Wind: from the ENE (070 degrees) at 3 MPH (3 KT):0
Visibility: 3 mile(s):0
Weather: mist
Temperature: 37 F (3 C)
Dew Point: 33 F (1 C)
Relative Humidity: 86%
Pressure (altimeter): 30.18 in. Hg (1022 hPa)
ob: LYBE 182300Z 07003KT 5000 BR NSC 03/01 Q1022 BECMG 3000
cycle: 23

Station Type Date Time Source
LYBE TAF 2019/02/18 18:21 UTC NOAA

TAF LYBE 181700Z 1818/1918 06005KT CAVOK TX14/1913Z TN00/1906Z
BECMG 1821/1823 3000 BR
TEMPO 1903/1906 0600 FG
BECMG 1907/1909 9999 NSW


Example: see airport list